Latest Weather Observations for Maria Island

IDT60801

Issued at 6:31 pm EST Saturday 25 April 2015 (issued every 30 minutes, with the page automatically refreshed every 10 minutes)

About weather observations | Map of weather stations | Latest weather observations for TAS | Other Formats
Station Details ID: 092124 Name: MARIA ISLAND (POINT LESUEUR) Lat: -42.66 Lon: 148.02 Height: 28.0 m
Data from the previous 72 hours. | See also: Recent months at Maria Island
Date/Time
EST
Temp
°C
App
Temp
°C
Dew
Point
Rel
Hum
%
Delta-T
°C
Wind Press
QNH
hPa
Press
MSL
hPa
Rain
since 9 am
mm
Dir
 
Spd
km/h
Gust
km/h
Spd
kts
Gust
kts
25/06:30pm 12.0 6.4 7.3 73 2.3 SSW 26 32 14 17 1012.0 1012.0 0.0
25/06:00pm 12.1 7.1 6.6 69 2.6 SSW 22 28 12 15 1011.7 1011.7 0.0
25/05:30pm 12.1 6.0 6.6 69 2.6 SSW 28 33 15 18 1011.1 1011.1 0.0
25/05:00pm 12.1 5.8 7.4 73 2.3 SSW 30 35 16 19 1010.7 1010.7 0.0
25/04:30pm 12.3 6.0 7.6 73 2.3 SSW 30 35 16 19 1010.6 1010.6 0.0
25/04:00pm 12.4 5.9 6.7 68 2.7 SSW 30 35 16 19 1010.4 1010.4 0.0
25/03:30pm 12.4 6.5 7.3 71 2.5 SSW 28 33 15 18 1010.5 1010.5 0.0
25/03:00pm 12.5 5.7 7.0 69 2.7 SSW 32 37 17 20 1010.3 1010.3 0.0
25/02:30pm 12.6 6.7 7.3 70 2.6 SSW 28 33 15 18 1010.1 1010.1 0.0
25/02:00pm 13.2 6.4 6.8 65 3.1 SSW 32 35 17 19 1009.9 1009.9 0.0
25/01:30pm 13.3 6.4 6.4 63 3.3 SSW 32 39 17 21 1009.7 1009.7 0.0
25/01:00pm 13.4 6.4 6.7 64 3.2 SSW 33 39 18 21 1009.6 1009.6 0.0
25/12:30pm 13.5 6.8 7.3 66 3.0 SSW 32 39 17 21 1009.6 1009.6 0.0
25/12:00pm 12.9 6.2 7.4 69 2.7 SSW 32 39 17 21 1009.7 1009.7 0.0
25/11:30am 13.3 5.9 8.2 71 2.5 SSW 37 43 20 23 1009.6 1009.6 0.0
25/11:00am 13.1 6.1 8.4 73 2.3 SSW 35 44 19 24 1009.6 1009.6 0.0
25/10:30am 12.4 5.9 8.3 76 2.0 SSW 32 37 17 20 1009.6 1009.6 0.0
25/10:00am 12.2 5.0 9.2 82 1.5 SSW 37 46 20 25 1009.4 1009.4 0.0
25/09:30am 11.6 4.6 10.0 90 0.8 SW 37 43 20 23 1009.0 1009.0 0.0
25/09:00am 11.9 4.7 10.5 91 0.7 SW 39 44 21 24 1008.8 1008.8 1.4
25/08:30am 12.2 5.5 10.9 92 0.7 SW 37 44 20 24 1008.5 1008.5 1.4
25/08:00am 12.0 6.5 10.7 92 0.7 SSW 30 35 16 19 1008.3 1008.3 1.4
25/07:30am 11.6 5.6 10.0 90 0.8 SSW 32 39 17 21 1007.9 1007.9 1.4
25/07:00am 12.1 6.4 9.7 85 1.2 SSW 30 37 16 20 1007.4 1007.4 1.4
25/06:30am 12.3 6.9 9.5 83 1.4 SW 28 37 15 20 1006.8 1006.7 1.4
25/06:00am 12.4 6.5 9.2 81 1.6 SSW 30 37 16 20 1006.3 1006.2 1.4
25/05:30am 12.5 4.0 9.1 80 1.7 SW 44 54 24 29 1005.7 1005.6 1.4
25/05:00am 12.6 5.3 10.1 85 1.3 SSW 39 48 21 26 1005.5 1005.4 1.4
25/04:30am 12.5 5.1 9.9 84 1.3 SSW 39 44 21 24 1005.2 1005.1 1.4
25/04:00am 12.6 6.2 9.4 81 1.6 SW 33 41 18 22 1005.1 1005.0 1.4
25/03:30am 12.8 6.1 9.6 81 1.6 SSW 35 43 19 23 1004.8 1004.7 1.4
25/03:00am 12.8 7.5 9.8 82 1.5 SW 28 32 15 17 1004.7 1004.6 1.4
25/02:30am 12.8 8.2 9.8 82 1.5 SW 24 30 13 16 1004.7 1004.6 1.4
25/02:00am 12.9 7.9 9.7 81 1.6 SW 26 33 14 18 1004.6 1004.5 1.4
25/01:30am 13.1 7.9 10.1 82 1.5 SW 28 32 15 17 1004.5 1004.4 1.4
25/01:00am 13.1 8.6 9.9 81 1.7 SW 24 28 13 15 1004.4 1004.3 1.4
25/12:30am 13.2 9.6 10.6 84 1.4 SW 20 26 11 14 1004.2 1004.1 1.4
25/12:00am 13.2 7.0 10.2 82 1.6 SSW 33 39 18 21 1003.9 1003.8 1.4
 
Date/Time
EST
Temp
°C
App
Temp
°C
Dew
Point
Rel
Hum
%
Delta-T
°C
Wind Press
QNH
hPa
Press
MSL
hPa
Rain
since 9 am
mm
Dir
 
Spd
km/h
Gust
km/h
Spd
kts
Gust
kts
24/11:30pm 13.4 7.3 10.4 82 1.6 SSW 33 39 18 21 1003.8 1003.7 1.4
24/11:00pm 13.4 8.8 10.9 85 1.3 SSW 26 30 14 16 1003.8 1003.7 1.4
24/10:30pm 13.4 9.6 11.1 86 1.2 SSW 22 26 12 14 1003.6 1003.5 1.4
24/10:00pm 13.4 9.3 11.5 88 1.0 SSW 24 30 13 16 1003.5 1003.4 1.4
24/09:30pm 13.7 10.0 11.4 86 1.2 SSW 22 28 12 15 1003.4 1003.3 1.4
24/09:00pm 13.8 9.3 11.5 86 1.2 S 26 30 14 16 1003.1 1003.0 1.4
24/08:30pm 13.8 10.7 11.7 87 1.1 SSW 19 20 10 11 1003.1 1003.0 1.4
24/08:00pm 13.9 10.8 11.6 86 1.2 SSW 19 22 10 12 1002.9 1002.8 1.4
24/07:30pm 14.0 10.9 11.7 86 1.2 SSW 19 22 10 12 1002.7 1002.6 1.4
24/07:00pm 14.1 12.0 11.3 83 1.5 SSW 13 15 7 8 1002.6 1002.5 1.4
24/06:30pm 13.9 12.6 11.4 85 1.3 S 9 11 5 6 1002.4 1002.3 1.4
24/06:00pm 13.9 12.2 11.2 84 1.4 SSE 11 13 6 7 1002.1 1002.0 1.4
24/05:30pm 13.9 12.6 11.4 85 1.3 SSE 9 11 5 6 1001.8 1001.7 1.4
24/05:00pm 14.2 12.6 11.5 84 1.5 S 11 15 6 8 1001.7 1001.6 1.4
24/04:30pm 14.2 12.6 11.7 85 1.3 SSW 11 13 6 7 1001.5 1001.4 1.4
24/04:00pm 14.2 13.0 11.7 85 1.3 S 9 11 5 6 1001.5 1001.4 1.4
24/03:30pm 14.3 12.7 11.6 84 1.4 S 11 13 6 7 1001.7 1001.6 1.4
24/03:00pm 14.1 12.2 11.8 86 1.2 S 13 17 7 9 1001.9 1001.8 1.4
24/02:30pm 14.3 12.8 11.8 85 1.3 S 11 15 6 8 1002.0 1001.9 1.4
24/02:00pm 14.6 13.9 12.1 85 1.4 S 7 11 4 6 1002.1 1002.0 1.4
24/01:30pm 14.2 13.6 11.7 85 1.3 S 6 9 3 5 1002.4 1002.3 1.4
24/01:00pm 14.3 13.7 12.2 87 1.1 SW 7 9 4 5 1002.7 1002.6 1.4
24/12:30pm 13.6 12.8 11.8 89 1.0 SSW 7 9 4 5 1002.8 1002.7 1.4
24/12:00pm 13.5 12.4 12.1 91 0.8 SSW 9 11 5 6 1003.3 1003.2 1.4
24/11:30am 13.2 10.9 11.9 92 0.7 SSW 15 17 8 9 1003.6 1003.5 1.4
24/11:00am 13.1 10.4 11.7 91 0.7 SSW 17 20 9 11 1003.9 1003.8 1.2
24/10:30am 13.1 11.6 12.0 93 0.6 S 11 15 6 8 1004.4 1004.3 1.0
24/10:00am 12.7 12.5 11.8 94 0.5 SW 4 4 2 2 1004.8 1004.7 0.6
24/09:30am 12.7 12.5 11.8 94 0.5 W 4 6 2 3 1005.1 1005.0 0.2
24/09:00am 12.7 12.2 11.9 95 0.4 WNW 6 6 3 3 1005.4 1005.3 6.0
24/08:30am 12.5 12.7 11.7 95 0.4 W 2 2 1 1 1005.5 1005.4 5.8
24/08:00am 12.6 12.4 11.8 95 0.4 W 4 6 2 3 1005.8 1005.7 5.2
24/07:30am 12.6 13.2 11.8 95 0.4 CALM 0 0 0 0 1005.8 1005.7 5.0
24/07:00am 12.5 12.2 11.6 94 0.5 SW 4 7 2 4 1005.6 1005.5 4.8
24/06:30am 12.4 11.2 11.5 94 0.5 SSW 9 11 5 6 1005.8 1005.7 4.8
24/06:00am 12.3 11.0 11.4 94 0.5 SSW 9 13 5 7 1005.9 1005.8 4.8
24/05:30am 12.8 10.8 11.5 92 0.7 SSW 13 17 7 9 1006.1 1006.0 4.8
24/05:00am 12.9 12.3 11.6 92 0.7 SSE 6 9 3 5 1006.3 1006.2 4.6
24/04:30am 12.7 11.9 11.6 93 0.6 SSW 7 11 4 6 1006.4 1006.3 4.6
24/04:00am 12.4 12.1 11.5 94 0.5 WSW 4 6 2 3 1006.8 1006.7 4.6
24/03:30am 12.4 11.5 11.5 94 0.5 SW 7 9 4 5 1006.9 1006.8 4.6
24/03:00am 12.4 11.2 11.6 95 0.4 SW 9 11 5 6 1007.3 1007.3 4.6
24/02:30am 12.1 10.8 11.3 95 0.4 SSW 9 11 5 6 1007.8 1007.8 4.6
24/02:00am 11.7 11.2 10.9 95 0.4 SSE 4 6 2 3 1008.5 1008.5 4.6
24/01:30am 11.8 12.1 10.9 94 0.5 CALM 0 0 0 0 1009.1 1009.1 4.6
24/01:00am 12.0 12.3 10.9 93 0.6 CALM 0 0 0 0 1009.7 1009.7 4.6
24/12:30am 12.0 11.9 10.9 93 0.6 WSW 2 2 1 1 1010.3 1010.3 4.6
24/12:00am 12.0 11.0 10.9 93 0.6 W 7 9 4 5 1010.9 1010.9 4.4
 
Date/Time
EST
Temp
°C
App
Temp
°C
Dew
Point
Rel
Hum
%
Delta-T
°C
Wind Press
QNH
hPa
Press
MSL
hPa
Rain
since 9 am
mm
Dir
 
Spd
km/h
Gust
km/h
Spd
kts
Gust
kts
23/11:30pm 12.2 10.4 10.9 92 0.7 W 11 15 6 8 1011.3 1011.3 3.8
23/11:00pm 12.7 11.4 11.1 90 0.8 W 9 11 5 6 1011.7 1011.7 2.0
23/10:30pm 13.2 12.8 11.1 87 1.1 SSW 4 4 2 2 1012.1 1012.1 1.6
23/10:00pm 13.4 13.0 11.1 86 1.2 W 4 6 2 3 1012.7 1012.7 1.6
23/09:30pm 13.8 13.7 10.8 82 1.6 S 2 4 1 2 1013.1 1013.1 1.0
23/09:00pm 13.8 13.1 10.2 79 1.9 SSE 4 6 2 3 1013.6 1013.6 0.8
23/08:30pm 13.8 12.7 10.6 81 1.7 SSE 7 7 4 4 1013.9 1013.9 0.8
23/08:00pm 13.7 13.6 9.6 76 2.1 CALM 0 0 0 0 1014.4 1014.4 0.8
23/07:30pm 13.8 13.0 9.6 76 2.2 E 4 4 2 2 1014.7 1014.7 0.8
23/07:00pm 14.0 12.8 9.6 75 2.3 ENE 6 7 3 4 1014.9 1014.9 0.8
23/06:30pm 13.6 12.1 10.6 82 1.6 ENE 9 13 5 7 1015.3 1015.3 0.8
23/06:00pm 14.0 13.1 10.8 81 1.7 ENE 6 11 3 6 1015.3 1015.3 0.8
23/05:30pm 14.1 14.2 11.4 84 1.4 NE 2 7 1 4 1015.4 1015.4 0.8
23/05:00pm 14.0 13.3 11.5 85 1.3 ENE 6 7 3 4 1015.6 1015.6 0.8
23/04:30pm 14.1 13.5 11.6 85 1.3 ENE 6 9 3 5 1015.9 1015.9 0.8
23/04:00pm 14.0 11.7 11.9 87 1.1 ENE 15 19 8 10 1016.4 1016.4 0.8
23/03:30pm 14.6 13.0 11.4 81 1.7 ESE 11 15 6 8 1016.8 1016.8 0.8
23/03:00pm 14.9 12.8 11.3 79 1.9 ESE 13 19 7 10 1017.2 1017.2 0.8
23/02:30pm 14.6 12.8 12.1 85 1.4 ESE 13 20 7 11 1017.6 1017.6 0.8
23/02:00pm 15.0 14.6 12.9 87 1.2 ENE 7 11 4 6 1018.0 1018.0 0.8
23/01:30pm 14.0 12.7 12.6 91 0.8 E 11 15 6 8 1018.5 1018.5 0.8
23/01:00pm 14.5 14.2 13.4 93 0.6 E 7 11 4 6 1018.9 1018.9 0.8
23/12:30pm 14.0 12.4 12.9 93 0.6 ESE 13 17 7 9 1019.6 1019.6 0.8
23/12:00pm 13.6 12.7 12.5 93 0.6 ESE 9 13 5 7 1020.2 1020.2 0.8
23/11:30am 13.8 12.6 12.7 93 0.6 E 11 17 6 9 1020.8 1020.8 0.6
23/11:00am 13.7 13.2 12.6 93 0.6 S 7 9 4 5 1021.2 1021.2 0.6
23/10:30am 13.7 12.4 12.6 93 0.6 ESE 11 15 6 8 1021.5 1021.5 0.2
23/10:00am 13.5 12.9 12.4 93 0.6 SSE 7 13 4 7 1021.6 1021.6 0.2
23/09:30am 13.7 11.2 12.4 92 0.7 S 17 20 9 11 1021.8 1021.8 0.0
23/09:00am 13.6 11.5 12.5 93 0.6 SSW 15 17 8 9 1022.0 1022.0 1.4
23/08:30am 13.1 11.7 12.2 94 0.5 SW 11 13 6 7 1022.4 1022.4 1.4
23/08:00am 13.1 11.0 12.3 95 0.4 SSW 15 17 8 9 1022.6 1022.6 1.4
23/07:30am 13.4 12.1 12.6 95 0.4 SSW 11 15 6 8 1022.8 1022.8 1.4
23/07:00am 12.9 11.1 12.0 94 0.5 S 13 17 7 9 1022.6 1022.6 1.4
23/06:30am 13.3 12.0 12.4 94 0.5 SSW 11 17 6 9 1022.4 1022.4 1.2
23/06:00am 12.5 11.9 11.6 94 0.5 WSW 6 9 3 5 1022.4 1022.4 1.2
23/05:30am 12.6 12.0 11.8 95 0.4 SW 6 7 3 4 1022.5 1022.5 1.2
23/05:00am 12.8 12.6 11.7 93 0.6 SW 4 6 2 3 1022.6 1022.6 0.8
23/04:30am 13.1 12.9 11.7 91 0.7 WSW 4 7 2 4 1022.7 1022.7 0.4
23/04:00am 13.3 12.6 11.9 91 0.7 SW 7 9 4 5 1022.8 1022.8 0.4
23/03:30am 13.4 12.3 12.0 91 0.8 S 9 11 5 6 1023.0 1023.0 0.4
23/03:00am 13.3 11.8 12.0 92 0.7 SSW 11 13 6 7 1023.2 1023.2 0.4
23/02:30am 13.4 12.9 12.0 91 0.8 SSW 6 7 3 4 1023.6 1023.6 0.4
23/02:00am 13.4 12.7 12.1 92 0.7 S 7 11 4 6 1023.9 1023.9 0.4
23/01:30am 13.2 12.7 12.1 93 0.6 SSW 6 9 3 5 1024.1 1024.1 0.4
23/01:00am 13.1 13.0 12.2 94 0.5 S 4 6 2 3 1024.4 1024.4 0.4
23/12:30am 12.7 12.9 11.9 95 0.4 E 2 4 1 2 1024.5 1024.5 0.4
23/12:00am 12.5 11.9 11.7 95 0.4 ENE 6 6 3 3 1024.8 1024.8 0.4
 
Date/Time
EST
Temp
°C
App
Temp
°C
Dew
Point
Rel
Hum
%
Delta-T
°C
Wind Press
QNH
hPa
Press
MSL
hPa
Rain
since 9 am
mm
Dir
 
Spd
km/h
Gust
km/h
Spd
kts
Gust
kts
22/11:30pm 12.6 10.7 11.8 95 0.4 ENE 13 15 7 8 1024.8 1024.8 0.4
22/11:00pm 12.9 11.8 11.8 93 0.6 E 9 13 5 7 1024.9 1024.9 0.4
22/10:30pm 13.0 12.3 11.9 93 0.6 E 7 7 4 4 1025.3 1025.3 0.4
22/10:00pm 13.0 11.5 11.9 93 0.6 E 11 13 6 7 1025.6 1025.6 0.4
22/09:30pm 13.4 12.3 12.1 92 0.7 E 9 15 5 8 1025.7 1025.7 0.4
22/09:00pm 13.2 13.9 12.3 94 0.5 CALM 0 4 0 2 1025.9 1025.9 0.4
22/08:30pm 13.2 13.6 12.4 95 0.4 ENE 2 6 1 3 1026.0 1026.0 0.4
22/08:00pm 13.2 12.8 12.4 95 0.4 E 6 7 3 4 1025.9 1025.9 0.4
22/07:30pm 13.2 13.3 12.6 96 0.3 ENE 4 6 2 3 1025.9 1025.9 0.4
22/07:00pm 13.3 12.4 12.7 96 0.3 NE 9 13 5 7 1026.1 1026.1 0.2

Other Formats:

Comma delimited format used in spreadsheet applications
http://www.bom.gov.au/fwo/IDT60801/IDT60801.95988.axf

JavaScript Object Notation format (JSON) in row-major order
http://www.bom.gov.au/fwo/IDT60801/IDT60801.95988.json